Tokuyoshi Maru — JI3537 — position and weather

sailwx.info

Track history (hours):
 
Tides and Currents Weather Stations Pressure Air Temp Water Temp Dewpoint Dewpoint Depression Visibility Wind Speed Wind Dir Waves Ship Positions

Tokuyoshi Maru

Last reported at 2017-Nov-19 04:56 UTC. Time now 2017-Nov-19 16:09 UTC.
Position N 34°35' E 135°17'.

Length 48 m.

Type: Tanker. MMSI: 431300099.

Date/timePositionNaut miles runAvg speedWind from/ knotsBaromVisibWave heightAir tempDewpointWater temp
2017-Nov-19 04:56N 34°35' E 135°17'511.1
2017-Nov-19 04:29N 34°34' E 135°11'20 8.0
2017-Nov-19 02:01N 34°15' E 135°05'2 0.6
2017-Nov-18 23:01N 34°14' E 135°08'0 0.4
2017-Nov-18 22:59N 34°14' E 135°08'1 1.3
2017-Nov-18 22:30N 34°14' E 135°07'0 0.0
2017-Nov-18 22:00N 34°14' E 135°07'0 0.1
2017-Nov-18 21:30N 34°14' E 135°07'0 0.0
2017-Nov-18 20:57N 34°14' E 135°07'0 0.1
2017-Nov-18 20:27N 34°14' E 135°07'0 0.1
2017-Nov-18 19:57N 34°14' E 135°07'0 0.0
2017-Nov-18 19:30N 34°14' E 135°07'0 0.0
2017-Nov-18 18:51N 34°14' E 135°07'0 0.0
2017-Nov-18 18:09N 34°14' E 135°07'0 0.0
2017-Nov-18 18:00N 34°14' E 135°07'0 0.0
2017-Nov-18 17:24N 34°14' E 135°07'0 0.0
2017-Nov-18 17:00N 34°14' E 135°07'0 0.0
2017-Nov-18 16:27N 34°14' E 135°07'0 0.0
2017-Nov-18 15:57N 34°14' E 135°07'0 0.0
2017-Nov-18 15:21N 34°14' E 135°07'0 0.0
2017-Nov-18 15:00N 34°14' E 135°07'0 0.0
2017-Nov-18 14:27N 34°14' E 135°07'0 0.0
2017-Nov-18 14:00N 34°14' E 135°07'0 0.0
2017-Nov-18 13:24N 34°14' E 135°07'0 0.0
2017-Nov-18 13:00N 34°14' E 135°07'0 0.0
2017-Nov-18 12:30N 34°14' E 135°07'0 0.0
2017-Nov-18 12:00N 34°14' E 135°07'0 0.0
2017-Nov-18 11:30N 34°14' E 135°07'25 2.9
2017-Nov-18 02:48N 34°36' E 135°21'3 9.9
2017-Nov-18 02:30N 34°39' E 135°19'4 6.5
2017-Nov-18 01:57N 34°42' E 135°18'0 0.0
2017-Nov-18 01:15N 34°42' E 135°18'0 0.0
2017-Nov-17 23:53N 34°42' E 135°18'0 0.6
2017-Nov-17 23:29N 34°42' E 135°18'4 8.9
2017-Nov-17 23:00N 34°40' E 135°23'  
2017-Nov-15 01:25N 34°15' E 135°05'2 0.8
2017-Nov-14 22:44N 34°14' E 135°08'1 4.5
2017-Nov-14 22:29N 34°14' E 135°06'1 1.8
2017-Nov-14 21:58N 34°14' E 135°06'0 0.0
2017-Nov-14 19:22N 34°14' E 135°06'0 0.0
2017-Nov-14 18:58N 34°14' E 135°06'0 0.0
2017-Nov-14 17:28N 34°14' E 135°06'0 0.0
2017-Nov-14 16:49N 34°14' E 135°06'0 0.0
2017-Nov-14 16:22N 34°14' E 135°06'0 0.0
2017-Nov-14 15:49N 34°14' E 135°06'0 0.0
2017-Nov-14 13:29N 34°13' E 135°06'0 0.0
2017-Nov-14 11:26N 34°13' E 135°06'0 0.0
2017-Nov-14 10:54N 34°14' E 135°06'0 0.0
2017-Nov-14 10:21N 34°14' E 135°06'0 0.0
2017-Nov-14 09:57N 34°14' E 135°06'0 0.0
2017-Nov-14 09:30N 34°14' E 135°06'0 0.0
2017-Nov-14 08:51N 34°14' E 135°06'0 0.6
2017-Nov-14 08:22N 34°13' E 135°06'3 0.1
2017-Nov-12 05:41N 34°15' E 135°03'210.8
2017-Nov-12 05:29N 34°13' E 135°04'16 1.9
2017-Nov-11 21:27N 34°27' E 135°13'711.0
2017-Nov-11 20:50N 34°32' E 135°18'411.0
2017-Nov-11 20:30N 34°34' E 135°22'5 0.1
2017-Nov-09 22:19N 34°36' E 135°16'3 8.2
2017-Nov-09 22:00N 34°36' E 135°13'4 9.0
2017-Nov-09 21:30N 34°36' E 135°08'  
Track history (hours):
 
Tides and Currents Weather Stations Pressure Air Temp Water Temp Dewpoint Dewpoint Depression Visibility Wind Speed Wind Dir Waves Ship Positions

Tokuyoshi Maru

Last reported at 2017-Nov-19 04:56 UTC. Time now 2017-Nov-19 16:09 UTC.
Position N 34°35' E 135°17'.

Length 48 m.

Type: Tanker. MMSI: 431300099.

Date/timePositionNaut miles runAvg speedWind from/ knotsBaromVisibWave heightAir tempDewpointWater temp
2017-Nov-19 04:56N 34°35' E 135°17'511.1
2017-Nov-19 04:29N 34°34' E 135°11'20 8.0
2017-Nov-19 02:01N 34°15' E 135°05'2 0.6
2017-Nov-18 23:01N 34°14' E 135°08'0 0.4
2017-Nov-18 22:59N 34°14' E 135°08'1 1.3
2017-Nov-18 22:30N 34°14' E 135°07'0 0.0
2017-Nov-18 22:00N 34°14' E 135°07'0 0.1
2017-Nov-18 21:30N 34°14' E 135°07'0 0.0
2017-Nov-18 20:57N 34°14' E 135°07'0 0.1
2017-Nov-18 20:27N 34°14' E 135°07'0 0.1
2017-Nov-18 19:57N 34°14' E 135°07'0 0.0
2017-Nov-18 19:30N 34°14' E 135°07'0 0.0
2017-Nov-18 18:51N 34°14' E 135°07'0 0.0
2017-Nov-18 18:09N 34°14' E 135°07'0 0.0
2017-Nov-18 18:00N 34°14' E 135°07'0 0.0
2017-Nov-18 17:24N 34°14' E 135°07'0 0.0
2017-Nov-18 17:00N 34°14' E 135°07'0 0.0
2017-Nov-18 16:27N 34°14' E 135°07'0 0.0
2017-Nov-18 15:57N 34°14' E 135°07'0 0.0
2017-Nov-18 15:21N 34°14' E 135°07'0 0.0
2017-Nov-18 15:00N 34°14' E 135°07'0 0.0
2017-Nov-18 14:27N 34°14' E 135°07'0 0.0
2017-Nov-18 14:00N 34°14' E 135°07'0 0.0
2017-Nov-18 13:24N 34°14' E 135°07'0 0.0
2017-Nov-18 13:00N 34°14' E 135°07'0 0.0
2017-Nov-18 12:30N 34°14' E 135°07'0 0.0
2017-Nov-18 12:00N 34°14' E 135°07'0 0.0
2017-Nov-18 11:30N 34°14' E 135°07'25 2.9
2017-Nov-18 02:48N 34°36' E 135°21'3 9.9
2017-Nov-18 02:30N 34°39' E 135°19'4 6.5
2017-Nov-18 01:57N 34°42' E 135°18'0 0.0
2017-Nov-18 01:15N 34°42' E 135°18'0 0.0
2017-Nov-17 23:53N 34°42' E 135°18'0 0.6
2017-Nov-17 23:29N 34°42' E 135°18'4 8.9
2017-Nov-17 23:00N 34°40' E 135°23'  
2017-Nov-15 01:25N 34°15' E 135°05'2 0.8
2017-Nov-14 22:44N 34°14' E 135°08'1 4.5
2017-Nov-14 22:29N 34°14' E 135°06'1 1.8
2017-Nov-14 21:58N 34°14' E 135°06'0 0.0
2017-Nov-14 19:22N 34°14' E 135°06'0 0.0
2017-Nov-14 18:58N 34°14' E 135°06'0 0.0
2017-Nov-14 17:28N 34°14' E 135°06'0 0.0
2017-Nov-14 16:49N 34°14' E 135°06'0 0.0
2017-Nov-14 16:22N 34°14' E 135°06'0 0.0
2017-Nov-14 15:49N 34°14' E 135°06'0 0.0
2017-Nov-14 13:29N 34°13' E 135°06'0 0.0
2017-Nov-14 11:26N 34°13' E 135°06'0 0.0
2017-Nov-14 10:54N 34°14' E 135°06'0 0.0
2017-Nov-14 10:21N 34°14' E 135°06'0 0.0
2017-Nov-14 09:57N 34°14' E 135°06'0 0.0
2017-Nov-14 09:30N 34°14' E 135°06'0 0.0
2017-Nov-14 08:51N 34°14' E 135°06'0 0.6
2017-Nov-14 08:22N 34°13' E 135°06'3 0.1
2017-Nov-12 05:41N 34°15' E 135°03'210.8
2017-Nov-12 05:29N 34°13' E 135°04'16 1.9
2017-Nov-11 21:27N 34°27' E 135°13'711.0
2017-Nov-11 20:50N 34°32' E 135°18'411.0
2017-Nov-11 20:30N 34°34' E 135°22'5 0.1
2017-Nov-09 22:19N 34°36' E 135°16'3 8.2
2017-Nov-09 22:00N 34°36' E 135°13'4 9.0
2017-Nov-09 21:30N 34°36' E 135°08'  

Dump ship's entire track history